sensor_id;sensor_type;location;lat;lon;timestamp;temperature;humidity
55213;DHT22;41083;52.932;6.674;2023-04-24T00:00:14;11.10;99.90
55213;DHT22;41083;52.932;6.674;2023-04-24T00:02:44;11.10;99.90
55213;DHT22;41083;52.932;6.674;2023-04-24T00:05:14;11.20;99.90
55213;DHT22;41083;52.932;6.674;2023-04-24T00:07:41;11.20;99.90
55213;DHT22;41083;52.932;6.674;2023-04-24T00:10:07;11.20;99.90
55213;DHT22;41083;52.932;6.674;2023-04-24T00:12:33;11.10;99.90
55213;DHT22;41083;52.932;6.674;2023-04-24T00:14:59;11.10;99.90
55213;DHT22;41083;52.932;6.674;2023-04-24T00:17:25;11.10;99.90
55213;DHT22;41083;52.932;6.674;2023-04-24T00:19:50;11.10;99.90
55213;DHT22;41083;52.932;6.674;2023-04-24T00:22:17;11.10;99.90
55213;DHT22;41083;52.932;6.674;2023-04-24T00:24:43;11.00;99.90
55213;DHT22;41083;52.932;6.674;2023-04-24T00:27:09;11.10;99.90
55213;DHT22;41083;52.932;6.674;2023-04-24T00:29:34;11.10;99.90
55213;DHT22;41083;52.932;6.674;2023-04-24T00:32:00;11.10;99.90
55213;DHT22;41083;52.932;6.674;2023-04-24T00:34:26;11.10;99.90
55213;DHT22;41083;52.932;6.674;2023-04-24T00:36:51;11.00;99.90
55213;DHT22;41083;52.932;6.674;2023-04-24T00:39:21;11.00;99.90
55213;DHT22;41083;52.932;6.674;2023-04-24T00:41:47;11.00;99.90
55213;DHT22;41083;52.932;6.674;2023-04-24T00:44:14;11.00;99.90
55213;DHT22;41083;52.932;6.674;2023-04-24T00:46:40;11.00;99.90
55213;DHT22;41083;52.932;6.674;2023-04-24T00:49:06;11.00;99.90
55213;DHT22;41083;52.932;6.674;2023-04-24T00:51:32;11.00;99.90
55213;DHT22;41083;52.932;6.674;2023-04-24T00:53:58;11.00;99.90
55213;DHT22;41083;52.932;6.674;2023-04-24T00:56:24;10.90;99.90
55213;DHT22;41083;52.932;6.674;2023-04-24T00:58:50;10.90;99.90
55213;DHT22;41083;52.932;6.674;2023-04-24T01:01:17;10.90;99.90
55213;DHT22;41083;52.932;6.674;2023-04-24T01:03:46;10.90;99.90
55213;DHT22;41083;52.932;6.674;2023-04-24T01:06:12;10.90;99.90
55213;DHT22;41083;52.932;6.674;2023-04-24T01:08:38;10.90;99.90
55213;DHT22;41083;52.932;6.674;2023-04-24T01:11:05;10.90;99.90
55213;DHT22;41083;52.932;6.674;2023-04-24T01:13:32;10.80;99.90
55213;DHT22;41083;52.932;6.674;2023-04-24T01:15:58;10.80;99.90
55213;DHT22;41083;52.932;6.674;2023-04-24T01:18:24;10.80;99.90
55213;DHT22;41083;52.932;6.674;2023-04-24T01:20:51;10.80;99.90
55213;DHT22;41083;52.932;6.674;2023-04-24T01:23:18;10.70;99.90
55213;DHT22;41083;52.932;6.674;2023-04-24T01:25:44;10.70;99.90
55213;DHT22;41083;52.932;6.674;2023-04-24T01:28:10;10.70;99.90
55213;DHT22;41083;52.932;6.674;2023-04-24T01:30:35;10.60;99.90
55213;DHT22;41083;52.932;6.674;2023-04-24T01:33:02;10.70;99.90
55213;DHT22;41083;52.932;6.674;2023-04-24T01:35:28;10.60;99.90
55213;DHT22;41083;52.932;6.674;2023-04-24T01:37:53;10.60;99.90
55213;DHT22;41083;52.932;6.674;2023-04-24T01:40:19;10.60;99.90
55213;DHT22;41083;52.932;6.674;2023-04-24T01:42:45;10.60;99.90
55213;DHT22;41083;52.932;6.674;2023-04-24T01:45:11;10.70;99.90
55213;DHT22;41083;52.932;6.674;2023-04-24T01:47:38;10.60;99.90
55213;DHT22;41083;52.932;6.674;2023-04-24T01:50:04;10.60;99.90
55213;DHT22;41083;52.932;6.674;2023-04-24T01:52:30;10.60;99.90
55213;DHT22;41083;52.932;6.674;2023-04-24T01:55:00;10.60;99.90
55213;DHT22;41083;52.932;6.674;2023-04-24T01:57:25;10.60;99.90
55213;DHT22;41083;52.932;6.674;2023-04-24T01:59:51;10.60;99.90
55213;DHT22;41083;52.932;6.674;2023-04-24T02:02:17;10.60;99.90
55213;DHT22;41083;52.932;6.674;2023-04-24T02:04:43;10.60;99.90
55213;DHT22;41083;52.932;6.674;2023-04-24T02:07:08;10.50;99.90
55213;DHT22;41083;52.932;6.674;2023-04-24T02:09:34;10.50;99.90
55213;DHT22;41083;52.932;6.674;2023-04-24T02:12:00;10.50;99.90
55213;DHT22;41083;52.932;6.674;2023-04-24T02:14:26;10.50;99.90
55213;DHT22;41083;52.932;6.674;2023-04-24T02:16:51;10.50;99.90
55213;DHT22;41083;52.932;6.674;2023-04-24T02:19:18;10.50;99.90
55213;DHT22;41083;52.932;6.674;2023-04-24T02:21:44;10.50;99.90
55213;DHT22;41083;52.932;6.674;2023-04-24T02:24:10;10.40;99.90
55213;DHT22;41083;52.932;6.674;2023-04-24T02:26:35;10.40;99.90
55213;DHT22;41083;52.932;6.674;2023-04-24T02:29:01;10.40;99.90
55213;DHT22;41083;52.932;6.674;2023-04-24T02:31:27;10.30;99.90
55213;DHT22;41083;52.932;6.674;2023-04-24T02:33:52;10.30;99.90
55213;DHT22;41083;52.932;6.674;2023-04-24T02:36:18;10.30;99.90
55213;DHT22;41083;52.932;6.674;2023-04-24T02:38:43;10.30;99.90
55213;DHT22;41083;52.932;6.674;2023-04-24T02:41:09;10.20;99.90
55213;DHT22;41083;52.932;6.674;2023-04-24T02:43:35;10.20;99.90
55213;DHT22;41083;52.932;6.674;2023-04-24T02:46:00;10.20;99.90
55213;DHT22;41083;52.932;6.674;2023-04-24T02:48:26;10.20;99.90
55213;DHT22;41083;52.932;6.674;2023-04-24T02:50:51;10.20;99.90
55213;DHT22;41083;52.932;6.674;2023-04-24T02:53:17;10.20;99.90
55213;DHT22;41083;52.932;6.674;2023-04-24T02:55:43;10.20;99.90
55213;DHT22;41083;52.932;6.674;2023-04-24T02:58:08;10.20;99.90
55213;DHT22;41083;52.932;6.674;2023-04-24T03:00:35;10.20;99.90
55213;DHT22;41083;52.932;6.674;2023-04-24T03:03:01;10.20;99.90
55213;DHT22;41083;52.932;6.674;2023-04-24T03:05:26;10.10;99.90
55213;DHT22;41083;52.932;6.674;2023-04-24T03:07:52;10.20;99.90
55213;DHT22;41083;52.932;6.674;2023-04-24T03:10:18;10.20;99.90
55213;DHT22;41083;52.932;6.674;2023-04-24T03:12:44;10.20;99.90
55213;DHT22;41083;52.932;6.674;2023-04-24T03:15:09;10.10;99.90
55213;DHT22;41083;52.932;6.674;2023-04-24T03:17:35;10.10;99.90
55213;DHT22;41083;52.932;6.674;2023-04-24T03:20:02;10.20;99.90
55213;DHT22;41083;52.932;6.674;2023-04-24T03:22:28;10.10;99.90
55213;DHT22;41083;52.932;6.674;2023-04-24T03:24:53;10.10;99.90
55213;DHT22;41083;52.932;6.674;2023-04-24T03:27:20;10.10;99.90
55213;DHT22;41083;52.932;6.674;2023-04-24T03:29:45;10.10;99.90
55213;DHT22;41083;52.932;6.674;2023-04-24T03:32:11;10.10;99.90
55213;DHT22;41083;52.932;6.674;2023-04-24T03:34:36;10.10;99.90
55213;DHT22;41083;52.932;6.674;2023-04-24T03:37:02;10.10;99.90
55213;DHT22;41083;52.932;6.674;2023-04-24T03:39:28;10.10;99.90
55213;DHT22;41083;52.932;6.674;2023-04-24T03:41:54;10.10;99.90
55213;DHT22;41083;52.932;6.674;2023-04-24T03:44:19;10.10;99.90
55213;DHT22;41083;52.932;6.674;2023-04-24T03:46:45;10.00;99.90
55213;DHT22;41083;52.932;6.674;2023-04-24T03:49:11;10.00;99.90
55213;DHT22;41083;52.932;6.674;2023-04-24T03:51:36;10.00;99.90
55213;DHT22;41083;52.932;6.674;2023-04-24T03:54:02;10.00;99.90
55213;DHT22;41083;52.932;6.674;2023-04-24T03:56:28;10.00;99.90
55213;DHT22;41083;52.932;6.674;2023-04-24T03:58:54;10.00;99.90
55213;DHT22;41083;52.932;6.674;2023-04-24T04:01:19;10.00;99.90
55213;DHT22;41083;52.932;6.674;2023-04-24T04:03:46;10.00;99.90
55213;DHT22;41083;52.932;6.674;2023-04-24T04:06:12;10.00;99.90
55213;DHT22;41083;52.932;6.674;2023-04-24T04:08:38;10.00;99.90
55213;DHT22;41083;52.932;6.674;2023-04-24T04:11:04;10.00;99.90
55213;DHT22;41083;52.932;6.674;2023-04-24T04:13:29;10.00;99.90
55213;DHT22;41083;52.932;6.674;2023-04-24T04:15:55;10.00;99.90
55213;DHT22;41083;52.932;6.674;2023-04-24T04:18:20;10.00;99.90
55213;DHT22;41083;52.932;6.674;2023-04-24T04:20:46;10.00;99.90
55213;DHT22;41083;52.932;6.674;2023-04-24T04:23:12;10.00;99.90
55213;DHT22;41083;52.932;6.674;2023-04-24T04:25:37;10.00;99.90
55213;DHT22;41083;52.932;6.674;2023-04-24T04:28:03;10.00;99.90
55213;DHT22;41083;52.932;6.674;2023-04-24T04:30:29;10.00;99.90
55213;DHT22;41083;52.932;6.674;2023-04-24T04:32:58;10.00;99.90
55213;DHT22;41083;52.932;6.674;2023-04-24T04:35:24;10.00;99.90
55213;DHT22;41083;52.932;6.674;2023-04-24T04:37:50;10.00;99.90
55213;DHT22;41083;52.932;6.674;2023-04-24T04:40:16;10.00;99.90
55213;DHT22;41083;52.932;6.674;2023-04-24T04:42:42;10.00;99.90
55213;DHT22;41083;52.932;6.674;2023-04-24T04:45:11;9.90;99.90
55213;DHT22;41083;52.932;6.674;2023-04-24T04:47:37;9.90;99.90
55213;DHT22;41083;52.932;6.674;2023-04-24T04:50:04;9.90;99.90
55213;DHT22;41083;52.932;6.674;2023-04-24T04:52:31;9.90;99.90
55213;DHT22;41083;52.932;6.674;2023-04-24T04:54:56;9.90;99.90
55213;DHT22;41083;52.932;6.674;2023-04-24T04:57:22;9.90;99.90
55213;DHT22;41083;52.932;6.674;2023-04-24T04:59:47;9.90;99.90
55213;DHT22;41083;52.932;6.674;2023-04-24T05:02:13;9.90;99.90
55213;DHT22;41083;52.932;6.674;2023-04-24T05:04:39;9.90;99.90
55213;DHT22;41083;52.932;6.674;2023-04-24T05:07:05;9.90;99.90
55213;DHT22;41083;52.932;6.674;2023-04-24T05:09:31;10.00;99.90
55213;DHT22;41083;52.932;6.674;2023-04-24T05:11:57;10.00;99.90
55213;DHT22;41083;52.932;6.674;2023-04-24T05:14:22;9.90;99.90
55213;DHT22;41083;52.932;6.674;2023-04-24T05:16:48;10.00;99.90
55213;DHT22;41083;52.932;6.674;2023-04-24T05:19:14;9.90;99.90
55213;DHT22;41083;52.932;6.674;2023-04-24T05:21:40;10.00;99.90
55213;DHT22;41083;52.932;6.674;2023-04-24T05:24:06;9.90;99.90
55213;DHT22;41083;52.932;6.674;2023-04-24T05:26:32;9.90;99.90
55213;DHT22;41083;52.932;6.674;2023-04-24T05:28:57;9.90;99.90
55213;DHT22;41083;52.932;6.674;2023-04-24T05:31:23;9.90;99.90
55213;DHT22;41083;52.932;6.674;2023-04-24T05:33:49;9.90;99.90
55213;DHT22;41083;52.932;6.674;2023-04-24T05:36:14;9.90;99.90
55213;DHT22;41083;52.932;6.674;2023-04-24T05:38:40;9.90;99.90
55213;DHT22;41083;52.932;6.674;2023-04-24T05:41:06;9.90;99.90
55213;DHT22;41083;52.932;6.674;2023-04-24T05:43:31;9.90;99.90
55213;DHT22;41083;52.932;6.674;2023-04-24T05:45:57;9.90;99.90
55213;DHT22;41083;52.932;6.674;2023-04-24T05:48:22;9.90;99.90
55213;DHT22;41083;52.932;6.674;2023-04-24T05:50:48;9.80;99.90
55213;DHT22;41083;52.932;6.674;2023-04-24T05:53:14;9.90;99.90
55213;DHT22;41083;52.932;6.674;2023-04-24T05:55:40;9.90;99.90
55213;DHT22;41083;52.932;6.674;2023-04-24T05:58:05;9.90;99.90
55213;DHT22;41083;52.932;6.674;2023-04-24T06:00:31;9.90;99.90
55213;DHT22;41083;52.932;6.674;2023-04-24T06:02:57;9.90;99.90
55213;DHT22;41083;52.932;6.674;2023-04-24T06:05:24;9.90;99.90
55213;DHT22;41083;52.932;6.674;2023-04-24T06:07:49;9.90;99.90
55213;DHT22;41083;52.932;6.674;2023-04-24T06:10:15;9.90;99.90
55213;DHT22;41083;52.932;6.674;2023-04-24T06:12:41;9.90;99.90
55213;DHT22;41083;52.932;6.674;2023-04-24T06:15:07;9.90;99.90
55213;DHT22;41083;52.932;6.674;2023-04-24T06:17:32;10.00;99.90
55213;DHT22;41083;52.932;6.674;2023-04-24T06:19:58;10.00;99.90
55213;DHT22;41083;52.932;6.674;2023-04-24T06:22:23;10.00;99.90
55213;DHT22;41083;52.932;6.674;2023-04-24T06:24:49;10.00;99.90
55213;DHT22;41083;52.932;6.674;2023-04-24T06:27:15;10.00;99.90
55213;DHT22;41083;52.932;6.674;2023-04-24T06:29:40;10.10;99.90
55213;DHT22;41083;52.932;6.674;2023-04-24T06:32:06;10.10;99.90
55213;DHT22;41083;52.932;6.674;2023-04-24T06:34:32;10.10;99.90
55213;DHT22;41083;52.932;6.674;2023-04-24T06:36:59;10.20;99.90
55213;DHT22;41083;52.932;6.674;2023-04-24T06:39:25;10.10;99.90
55213;DHT22;41083;52.932;6.674;2023-04-24T06:41:51;10.20;99.90
55213;DHT22;41083;52.932;6.674;2023-04-24T06:44:16;10.20;99.90
55213;DHT22;41083;52.932;6.674;2023-04-24T06:46:42;10.20;99.90
55213;DHT22;41083;52.932;6.674;2023-04-24T06:49:07;10.20;99.90
55213;DHT22;41083;52.932;6.674;2023-04-24T06:51:33;10.20;99.90
55213;DHT22;41083;52.932;6.674;2023-04-24T06:53:59;10.20;99.90
55213;DHT22;41083;52.932;6.674;2023-04-24T06:56:25;10.20;99.90
55213;DHT22;41083;52.932;6.674;2023-04-24T06:58:51;10.20;99.90
55213;DHT22;41083;52.932;6.674;2023-04-24T07:01:17;10.20;99.90
55213;DHT22;41083;52.932;6.674;2023-04-24T07:03:43;10.20;99.90
55213;DHT22;41083;52.932;6.674;2023-04-24T07:06:09;10.20;99.90
55213;DHT22;41083;52.932;6.674;2023-04-24T07:08:36;10.10;99.90
55213;DHT22;41083;52.932;6.674;2023-04-24T07:11:02;10.20;99.90
55213;DHT22;41083;52.932;6.674;2023-04-24T07:13:28;10.00;99.90
55213;DHT22;41083;52.932;6.674;2023-04-24T07:15:54;10.20;99.90
55213;DHT22;41083;52.932;6.674;2023-04-24T07:18:21;10.20;99.90
55213;DHT22;41083;52.932;6.674;2023-04-24T07:20:47;10.20;99.90
55213;DHT22;41083;52.932;6.674;2023-04-24T07:23:15;10.20;99.90
55213;DHT22;41083;52.932;6.674;2023-04-24T07:25:41;10.20;99.90
55213;DHT22;41083;52.932;6.674;2023-04-24T07:28:07;10.20;99.90
55213;DHT22;41083;52.932;6.674;2023-04-24T07:30:32;10.20;99.90
55213;DHT22;41083;52.932;6.674;2023-04-24T07:32:58;10.10;99.90
55213;DHT22;41083;52.932;6.674;2023-04-24T07:35:25;10.20;99.90
55213;DHT22;41083;52.932;6.674;2023-04-24T07:37:54;10.20;99.90
55213;DHT22;41083;52.932;6.674;2023-04-24T07:40:20;10.20;99.90
55213;DHT22;41083;52.932;6.674;2023-04-24T07:42:45;10.20;99.90
55213;DHT22;41083;52.932;6.674;2023-04-24T07:45:13;10.20;99.90
55213;DHT22;41083;52.932;6.674;2023-04-24T07:47:41;10.20;99.90
55213;DHT22;41083;52.932;6.674;2023-04-24T07:50:09;10.20;99.90
55213;DHT22;41083;52.932;6.674;2023-04-24T07:52:35;10.20;99.90
55213;DHT22;41083;52.932;6.674;2023-04-24T07:55:01;10.20;99.90
55213;DHT22;41083;52.932;6.674;2023-04-24T07:57:27;10.20;99.90
55213;DHT22;41083;52.932;6.674;2023-04-24T07:59:53;10.10;99.90
55213;DHT22;41083;52.932;6.674;2023-04-24T08:02:19;10.10;99.90
55213;DHT22;41083;52.932;6.674;2023-04-24T08:04:47;10.10;99.90
55213;DHT22;41083;52.932;6.674;2023-04-24T08:07:12;10.00;99.90
55213;DHT22;41083;52.932;6.674;2023-04-24T08:09:38;10.00;99.90
55213;DHT22;41083;52.932;6.674;2023-04-24T08:12:04;10.00;99.90
55213;DHT22;41083;52.932;6.674;2023-04-24T08:14:29;9.90;99.90
55213;DHT22;41083;52.932;6.674;2023-04-24T08:16:55;9.90;99.90
55213;DHT22;41083;52.932;6.674;2023-04-24T08:19:21;9.90;99.90
55213;DHT22;41083;52.932;6.674;2023-04-24T08:21:48;9.90;99.90
55213;DHT22;41083;52.932;6.674;2023-04-24T08:24:14;9.90;99.90
55213;DHT22;41083;52.932;6.674;2023-04-24T08:26:39;9.90;99.90
55213;DHT22;41083;52.932;6.674;2023-04-24T08:29:05;9.90;99.90
55213;DHT22;41083;52.932;6.674;2023-04-24T08:31:32;9.90;99.90
55213;DHT22;41083;52.932;6.674;2023-04-24T08:33:57;9.80;99.90
55213;DHT22;41083;52.932;6.674;2023-04-24T08:36:24;9.80;99.90
55213;DHT22;41083;52.932;6.674;2023-04-24T08:38:49;9.80;99.90
55213;DHT22;41083;52.932;6.674;2023-04-24T08:41:15;9.70;99.90
55213;DHT22;41083;52.932;6.674;2023-04-24T08:43:43;9.70;99.90
55213;DHT22;41083;52.932;6.674;2023-04-24T08:46:12;9.60;99.90
55213;DHT22;41083;52.932;6.674;2023-04-24T08:48:39;9.60;99.90
55213;DHT22;41083;52.932;6.674;2023-04-24T08:51:07;9.60;99.90
55213;DHT22;41083;52.932;6.674;2023-04-24T08:53:33;9.60;99.90
55213;DHT22;41083;52.932;6.674;2023-04-24T08:56:01;9.50;99.90
55213;DHT22;41083;52.932;6.674;2023-04-24T08:58:27;9.50;99.90
55213;DHT22;41083;52.932;6.674;2023-04-24T09:00:57;9.40;99.90
55213;DHT22;41083;52.932;6.674;2023-04-24T09:03:23;9.50;99.90
55213;DHT22;41083;52.932;6.674;2023-04-24T09:05:49;9.40;99.90
55213;DHT22;41083;52.932;6.674;2023-04-24T09:08:19;9.40;99.90
55213;DHT22;41083;52.932;6.674;2023-04-24T09:10:45;9.40;99.90
55213;DHT22;41083;52.932;6.674;2023-04-24T09:13:11;9.40;99.90
55213;DHT22;41083;52.932;6.674;2023-04-24T09:15:40;9.40;99.90
55213;DHT22;41083;52.932;6.674;2023-04-24T09:18:06;9.40;99.90
55213;DHT22;41083;52.932;6.674;2023-04-24T09:20:32;9.30;99.90
55213;DHT22;41083;52.932;6.674;2023-04-24T09:22:58;9.30;99.90
55213;DHT22;41083;52.932;6.674;2023-04-24T09:25:34;9.20;99.90
55213;DHT22;41083;52.932;6.674;2023-04-24T09:28:04;9.20;99.90
55213;DHT22;41083;52.932;6.674;2023-04-24T09:30:32;9.20;99.90
55213;DHT22;41083;52.932;6.674;2023-04-24T09:33:14;9.20;99.90
55213;DHT22;41083;52.932;6.674;2023-04-24T09:35:51;9.20;99.90
55213;DHT22;41083;52.932;6.674;2023-04-24T09:38:17;9.20;99.90
55213;DHT22;41083;52.932;6.674;2023-04-24T09:40:43;9.20;99.90
55213;DHT22;41083;52.932;6.674;2023-04-24T09:43:12;9.10;99.90
55213;DHT22;41083;52.932;6.674;2023-04-24T09:45:39;9.10;99.90
55213;DHT22;41083;52.932;6.674;2023-04-24T09:48:05;9.20;99.90
55213;DHT22;41083;52.932;6.674;2023-04-24T09:50:34;9.20;99.90
55213;DHT22;41083;52.932;6.674;2023-04-24T09:53:05;9.20;99.90
55213;DHT22;41083;52.932;6.674;2023-04-24T09:55:31;9.20;99.90
55213;DHT22;41083;52.932;6.674;2023-04-24T09:57:58;9.20;99.90
55213;DHT22;41083;52.932;6.674;2023-04-24T10:00:32;9.20;99.90
55213;DHT22;41083;52.932;6.674;2023-04-24T10:03:02;9.20;99.90
55213;DHT22;41083;52.932;6.674;2023-04-24T10:08:00;9.10;99.90
55213;DHT22;41083;52.932;6.674;2023-04-24T10:10:25;9.10;99.90
55213;DHT22;41083;52.932;6.674;2023-04-24T10:12:51;9.20;99.90
55213;DHT22;41083;52.932;6.674;2023-04-24T10:15:18;9.10;99.90
55213;DHT22;41083;52.932;6.674;2023-04-24T10:17:50;9.10;99.90
55213;DHT22;41083;52.932;6.674;2023-04-24T10:20:23;9.10;99.90
55213;DHT22;41083;52.932;6.674;2023-04-24T10:22:51;9.10;99.90
55213;DHT22;41083;52.932;6.674;2023-04-24T10:25:25;9.10;99.90
55213;DHT22;41083;52.932;6.674;2023-04-24T10:27:52;9.20;99.90
55213;DHT22;41083;52.932;6.674;2023-04-24T10:30:19;9.20;99.90
55213;DHT22;41083;52.932;6.674;2023-04-24T10:32:45;9.20;99.90
55213;DHT22;41083;52.932;6.674;2023-04-24T10:35:15;9.30;99.90
55213;DHT22;41083;52.932;6.674;2023-04-24T10:37:46;9.30;99.90
55213;DHT22;41083;52.932;6.674;2023-04-24T10:40:18;9.30;99.90
55213;DHT22;41083;52.932;6.674;2023-04-24T10:42:47;9.30;99.90
55213;DHT22;41083;52.932;6.674;2023-04-24T10:45:17;9.40;99.90
55213;DHT22;41083;52.932;6.674;2023-04-24T10:47:58;9.30;99.90
55213;DHT22;41083;52.932;6.674;2023-04-24T10:50:26;9.30;99.90
55213;DHT22;41083;52.932;6.674;2023-04-24T10:52:53;9.30;99.90
55213;DHT22;41083;52.932;6.674;2023-04-24T10:55:48;9.30;99.90
55213;DHT22;41083;52.932;6.674;2023-04-24T10:58:14;9.30;99.90
55213;DHT22;41083;52.932;6.674;2023-04-24T11:00:42;9.30;99.90
55213;DHT22;41083;52.932;6.674;2023-04-24T11:03:28;9.30;99.90
55213;DHT22;41083;52.932;6.674;2023-04-24T11:06:01;9.30;99.90
55213;DHT22;41083;52.932;6.674;2023-04-24T11:08:28;9.30;99.90
55213;DHT22;41083;52.932;6.674;2023-04-24T11:10:57;9.40;99.90
55213;DHT22;41083;52.932;6.674;2023-04-24T11:13:25;9.30;99.90
55213;DHT22;41083;52.932;6.674;2023-04-24T11:16:43;9.40;99.90
55213;DHT22;41083;52.932;6.674;2023-04-24T11:19:08;9.50;99.90
55213;DHT22;41083;52.932;6.674;2023-04-24T11:21:41;9.60;99.90
55213;DHT22;41083;52.932;6.674;2023-04-24T11:24:28;9.80;99.90
55213;DHT22;41083;52.932;6.674;2023-04-24T11:27:05;9.80;99.90
55213;DHT22;41083;52.932;6.674;2023-04-24T11:32:29;9.80;99.90
55213;DHT22;41083;52.932;6.674;2023-04-24T11:35:40;9.80;99.90
55213;DHT22;41083;52.932;6.674;2023-04-24T11:37:54;9.70;99.90
55213;DHT22;41083;52.932;6.674;2023-04-24T11:40:21;9.70;99.90
55213;DHT22;41083;52.932;6.674;2023-04-24T11:42:52;9.70;99.90
55213;DHT22;41083;52.932;6.674;2023-04-24T11:45:26;9.60;99.90
55213;DHT22;41083;52.932;6.674;2023-04-24T11:47:52;9.60;99.90
55213;DHT22;41083;52.932;6.674;2023-04-24T11:50:22;9.60;99.90
55213;DHT22;41083;52.932;6.674;2023-04-24T11:52:49;9.70;99.90
55213;DHT22;41083;52.932;6.674;2023-04-24T11:57:49;9.70;99.90
55213;DHT22;41083;52.932;6.674;2023-04-24T12:00:20;9.70;99.90
55213;DHT22;41083;52.932;6.674;2023-04-24T12:02:47;9.70;99.90
55213;DHT22;41083;52.932;6.674;2023-04-24T12:05:23;9.70;99.90
55213;DHT22;41083;52.932;6.674;2023-04-24T12:07:49;9.70;99.90
55213;DHT22;41083;52.932;6.674;2023-04-24T12:10:20;9.70;99.90
55213;DHT22;41083;52.932;6.674;2023-04-24T12:12:46;9.60;99.90
55213;DHT22;41083;52.932;6.674;2023-04-24T12:15:12;9.50;99.90
55213;DHT22;41083;52.932;6.674;2023-04-24T12:17:41;9.50;99.90
55213;DHT22;41083;52.932;6.674;2023-04-24T12:20:08;9.50;99.90
55213;DHT22;41083;52.932;6.674;2023-04-24T12:22:54;9.50;99.90
55213;DHT22;41083;52.932;6.674;2023-04-24T12:25:21;9.50;99.90
55213;DHT22;41083;52.932;6.674;2023-04-24T12:27:53;9.50;99.90
55213;DHT22;41083;52.932;6.674;2023-04-24T12:30:19;9.50;99.90
55213;DHT22;41083;52.932;6.674;2023-04-24T12:32:49;9.50;99.90
55213;DHT22;41083;52.932;6.674;2023-04-24T12:35:23;9.50;99.90
55213;DHT22;41083;52.932;6.674;2023-04-24T12:37:49;9.60;99.90
55213;DHT22;41083;52.932;6.674;2023-04-24T12:40:16;9.60;99.90
55213;DHT22;41083;52.932;6.674;2023-04-24T12:42:47;9.60;99.90
55213;DHT22;41083;52.932;6.674;2023-04-24T12:45:15;9.70;99.90
55213;DHT22;41083;52.932;6.674;2023-04-24T12:47:42;9.70;99.90
55213;DHT22;41083;52.932;6.674;2023-04-24T12:50:09;9.70;99.90
55213;DHT22;41083;52.932;6.674;2023-04-24T12:52:35;9.70;99.90
55213;DHT22;41083;52.932;6.674;2023-04-24T12:55:01;9.70;99.90
55213;DHT22;41083;52.932;6.674;2023-04-24T12:57:29;9.60;99.90
55213;DHT22;41083;52.932;6.674;2023-04-24T12:59:55;9.60;99.90
55213;DHT22;41083;52.932;6.674;2023-04-24T13:02:23;9.50;99.90
55213;DHT22;41083;52.932;6.674;2023-04-24T13:04:49;9.50;99.90
55213;DHT22;41083;52.932;6.674;2023-04-24T13:07:15;9.60;99.90
55213;DHT22;41083;52.932;6.674;2023-04-24T13:09:42;9.60;99.90
55213;DHT22;41083;52.932;6.674;2023-04-24T13:12:08;9.60;99.90
55213;DHT22;41083;52.932;6.674;2023-04-24T13:14:35;9.60;99.90
55213;DHT22;41083;52.932;6.674;2023-04-24T13:17:00;9.60;99.90
55213;DHT22;41083;52.932;6.674;2023-04-24T13:19:26;9.50;99.90
55213;DHT22;41083;52.932;6.674;2023-04-24T13:21:53;9.50;99.90
55213;DHT22;41083;52.932;6.674;2023-04-24T13:24:20;9.50;99.90
55213;DHT22;41083;52.932;6.674;2023-04-24T13:26:46;9.50;99.90
55213;DHT22;41083;52.932;6.674;2023-04-24T13:29:11;9.50;99.90
55213;DHT22;41083;52.932;6.674;2023-04-24T13:31:37;9.50;99.90
55213;DHT22;41083;52.932;6.674;2023-04-24T13:34:03;9.60;99.90
55213;DHT22;41083;52.932;6.674;2023-04-24T13:36:29;9.60;99.90
55213;DHT22;41083;52.932;6.674;2023-04-24T13:38:55;9.60;99.90
55213;DHT22;41083;52.932;6.674;2023-04-24T13:41:21;9.60;99.90
55213;DHT22;41083;52.932;6.674;2023-04-24T13:43:47;9.60;99.90
55213;DHT22;41083;52.932;6.674;2023-04-24T13:46:13;9.60;99.90
55213;DHT22;41083;52.932;6.674;2023-04-24T13:48:38;9.60;99.90
55213;DHT22;41083;52.932;6.674;2023-04-24T13:51:04;9.50;99.90
55213;DHT22;41083;52.932;6.674;2023-04-24T13:53:29;9.50;99.90
55213;DHT22;41083;52.932;6.674;2023-04-24T13:55:55;9.50;99.90
55213;DHT22;41083;52.932;6.674;2023-04-24T13:58:21;9.50;99.90
55213;DHT22;41083;52.932;6.674;2023-04-24T14:00:46;9.40;99.90
55213;DHT22;41083;52.932;6.674;2023-04-24T14:03:12;9.50;99.90
55213;DHT22;41083;52.932;6.674;2023-04-24T14:05:38;9.50;99.90
55213;DHT22;41083;52.932;6.674;2023-04-24T14:08:04;9.60;99.90
55213;DHT22;41083;52.932;6.674;2023-04-24T14:10:30;9.70;99.90
55213;DHT22;41083;52.932;6.674;2023-04-24T14:12:55;9.70;99.90
55213;DHT22;41083;52.932;6.674;2023-04-24T14:15:21;9.70;99.90
55213;DHT22;41083;52.932;6.674;2023-04-24T14:17:47;9.80;99.90
55213;DHT22;41083;52.932;6.674;2023-04-24T14:20:13;9.80;99.90
55213;DHT22;41083;52.932;6.674;2023-04-24T14:22:39;9.80;99.90
55213;DHT22;41083;52.932;6.674;2023-04-24T14:25:05;9.80;99.90
55213;DHT22;41083;52.932;6.674;2023-04-24T14:27:32;9.80;99.90
55213;DHT22;41083;52.932;6.674;2023-04-24T14:29:57;9.70;99.90
55213;DHT22;41083;52.932;6.674;2023-04-24T14:32:23;9.70;99.90
55213;DHT22;41083;52.932;6.674;2023-04-24T14:34:49;9.60;99.90
55213;DHT22;41083;52.932;6.674;2023-04-24T14:37:14;9.60;99.90
55213;DHT22;41083;52.932;6.674;2023-04-24T14:39:40;9.50;99.90
55213;DHT22;41083;52.932;6.674;2023-04-24T14:42:06;9.50;99.90
55213;DHT22;41083;52.932;6.674;2023-04-24T14:44:31;9.50;99.90
55213;DHT22;41083;52.932;6.674;2023-04-24T14:46:58;9.50;99.90
55213;DHT22;41083;52.932;6.674;2023-04-24T14:49:24;9.50;99.90
55213;DHT22;41083;52.932;6.674;2023-04-24T14:51:49;9.50;99.90
55213;DHT22;41083;52.932;6.674;2023-04-24T14:54:15;9.50;99.90
55213;DHT22;41083;52.932;6.674;2023-04-24T14:56:40;9.40;99.90
55213;DHT22;41083;52.932;6.674;2023-04-24T14:59:08;9.40;99.90
55213;DHT22;41083;52.932;6.674;2023-04-24T15:01:33;9.40;99.90
55213;DHT22;41083;52.932;6.674;2023-04-24T15:03:59;9.40;99.90
55213;DHT22;41083;52.932;6.674;2023-04-24T15:06:25;9.50;99.90
55213;DHT22;41083;52.932;6.674;2023-04-24T15:08:50;9.50;99.90
55213;DHT22;41083;52.932;6.674;2023-04-24T15:11:16;9.50;99.90
55213;DHT22;41083;52.932;6.674;2023-04-24T15:13:42;9.50;99.90
55213;DHT22;41083;52.932;6.674;2023-04-24T15:16:07;9.50;99.90
55213;DHT22;41083;52.932;6.674;2023-04-24T15:18:33;9.50;99.90
55213;DHT22;41083;52.932;6.674;2023-04-24T15:20:59;9.40;99.90
55213;DHT22;41083;52.932;6.674;2023-04-24T15:23:24;9.40;99.90
55213;DHT22;41083;52.932;6.674;2023-04-24T15:25:50;9.50;99.90
55213;DHT22;41083;52.932;6.674;2023-04-24T15:28:16;9.60;99.90
55213;DHT22;41083;52.932;6.674;2023-04-24T15:30:43;9.60;99.90
55213;DHT22;41083;52.932;6.674;2023-04-24T15:33:08;9.60;99.90
55213;DHT22;41083;52.932;6.674;2023-04-24T15:35:34;9.70;99.90
55213;DHT22;41083;52.932;6.674;2023-04-24T15:38:01;9.60;99.90
55213;DHT22;41083;52.932;6.674;2023-04-24T15:40:27;9.60;99.90
55213;DHT22;41083;52.932;6.674;2023-04-24T15:42:53;9.50;99.90
55213;DHT22;41083;52.932;6.674;2023-04-24T15:45:18;9.50;99.90